createdAt,value
2022-10-02T00:01:58.106Z,8.32
2022-10-02T00:04:28.400Z,8.25
2022-10-02T00:06:58.016Z,8.16
2022-10-02T00:09:30.107Z,8.11
2022-10-02T00:11:59.049Z,8.07
2022-10-02T00:14:30.344Z,7.99
2022-10-02T00:16:59.204Z,7.97
2022-10-02T00:19:27.615Z,7.92
2022-10-02T00:22:10.531Z,7.87
2022-10-02T00:24:39.780Z,7.91
2022-10-02T00:27:15.660Z,7.99
2022-10-02T00:29:49.145Z,8.00
2022-10-02T00:32:21.656Z,7.99
2022-10-02T00:35:25.800Z,7.99
2022-10-02T00:37:56.111Z,8.01
2022-10-02T00:40:51.356Z,8.03
2022-10-02T00:43:24.763Z,7.98
2022-10-02T00:46:08.171Z,8.01
2022-10-02T00:49:01.118Z,8.08
2022-10-02T00:51:36.931Z,8.15
2022-10-02T00:54:11.797Z,8.18
2022-10-02T00:56:42.122Z,8.23
2022-10-02T00:59:40.857Z,8.26
2022-10-02T01:02:12.855Z,8.29
2022-10-02T01:04:41.235Z,8.34
2022-10-02T01:07:11.689Z,8.35
2022-10-02T01:09:40.102Z,8.39
2022-10-02T01:12:08.334Z,8.41
2022-10-02T01:14:36.686Z,8.42
2022-10-02T01:17:04.795Z,8.39
2022-10-02T01:19:37.239Z,8.43
2022-10-02T01:22:08.282Z,8.39
2022-10-02T01:24:38.289Z,8.34
2022-10-02T01:27:07.721Z,8.37
2022-10-02T01:29:35.772Z,8.32
2022-10-02T01:32:03.885Z,8.29
2022-10-02T01:34:31.965Z,8.19
2022-10-02T01:37:00.348Z,8.12
2022-10-02T01:39:28.459Z,8.09
2022-10-02T01:41:56.559Z,8.09
2022-10-02T01:44:25.983Z,8.12
2022-10-02T01:46:57.291Z,8.17
2022-10-02T01:49:37.613Z,8.18
2022-10-02T01:52:27.398Z,8.12
2022-10-02T01:55:06.885Z,8.04
2022-10-02T01:57:45.354Z,8.01
2022-10-02T02:00:17.374Z,8.09
2022-10-02T02:02:52.873Z,8.15
2022-10-02T02:05:31.132Z,8.20
2022-10-02T02:08:02.462Z,8.17
2022-10-02T02:10:35.998Z,8.20
2022-10-02T02:13:05.338Z,8.24
2022-10-02T02:15:38.145Z,8.23
2022-10-02T02:18:08.958Z,8.22
2022-10-02T02:20:39.461Z,8.16
2022-10-02T02:23:09.222Z,8.14
2022-10-02T02:25:39.462Z,8.14
2022-10-02T02:28:08.472Z,8.15
2022-10-02T02:30:38.598Z,8.10
2022-10-02T02:33:08.325Z,8.06
2022-10-02T02:35:37.450Z,8.05
2022-10-02T02:38:07.099Z,8.09
2022-10-02T02:40:37.346Z,8.05
2022-10-02T02:43:06.743Z,8.05
2022-10-02T02:45:37.399Z,8.01
2022-10-02T02:48:08.989Z,8.03
2022-10-02T02:50:38.403Z,8.04
2022-10-02T02:53:08.218Z,7.99
2022-10-02T02:55:39.384Z,7.96
2022-10-02T02:58:12.142Z,7.97
2022-10-02T03:00:40.550Z,7.96
2022-10-02T03:03:10.064Z,7.93
2022-10-02T03:05:39.237Z,7.89
2022-10-02T03:08:09.148Z,7.80
2022-10-02T03:10:43.785Z,7.76
2022-10-02T03:13:26.072Z,7.72
2022-10-02T03:16:02.137Z,7.81
2022-10-02T03:18:37.653Z,7.81
2022-10-02T03:21:10.592Z,7.76
2022-10-02T03:23:42.719Z,7.72
2022-10-02T03:26:13.290Z,7.73
2022-10-02T03:28:55.381Z,7.81
2022-10-02T03:31:24.438Z,7.87
2022-10-02T03:33:54.765Z,7.93
2022-10-02T03:36:24.519Z,7.92
2022-10-02T03:39:12.524Z,7.90
2022-10-02T03:41:41.446Z,7.98
2022-10-02T03:44:09.501Z,7.96
2022-10-02T03:46:37.744Z,7.96
2022-10-02T03:49:07.543Z,7.97
2022-10-02T03:51:35.577Z,8.04
2022-10-02T03:54:03.655Z,8.11
2022-10-02T03:56:35.933Z,8.17
2022-10-02T03:59:04.662Z,8.21
2022-10-02T04:01:33.962Z,8.25
2022-10-02T04:04:04.269Z,8.28
2022-10-02T04:06:39.726Z,8.38
2022-10-02T04:09:10.208Z,8.42
2022-10-02T04:11:40.249Z,8.45
2022-10-02T04:14:11.162Z,8.46
2022-10-02T04:16:41.066Z,8.47
2022-10-02T04:19:12.703Z,8.48
2022-10-02T04:21:44.547Z,8.53
2022-10-02T04:24:17.839Z,8.56
2022-10-02T04:26:47.797Z,8.61
2022-10-02T04:29:17.722Z,8.63
2022-10-02T04:31:46.613Z,8.68
2022-10-02T04:34:14.811Z,8.67
2022-10-02T04:36:52.881Z,8.70
2022-10-02T04:39:28.982Z,8.75
2022-10-02T04:42:08.970Z,8.79
2022-10-02T04:44:44.143Z,8.82
2022-10-02T04:47:24.085Z,8.84
2022-10-02T04:49:59.768Z,8.88
2022-10-02T04:52:42.642Z,8.90
2022-10-02T04:55:26.487Z,8.91
2022-10-02T04:58:06.998Z,8.96
2022-10-02T05:00:36.565Z,8.99
2022-10-02T05:03:14.461Z,8.99
2022-10-02T05:05:56.733Z,9.00
2022-10-02T05:08:39.489Z,8.98
2022-10-02T05:11:15.131Z,8.97
2022-10-02T05:14:00.708Z,8.96
2022-10-02T05:16:37.122Z,8.97
2022-10-02T05:19:26.306Z,8.98
2022-10-02T05:22:14.917Z,8.98
2022-10-02T05:24:51.788Z,8.96
2022-10-02T05:27:40.467Z,8.89
2022-10-02T05:30:10.277Z,8.87
2022-10-02T05:33:00.127Z,8.86
2022-10-02T05:35:50.186Z,8.92
2022-10-02T05:38:23.519Z,8.90
2022-10-02T05:40:57.298Z,8.86
2022-10-02T05:43:28.353Z,8.87
2022-10-02T05:45:57.600Z,8.93
2022-10-02T05:48:27.278Z,9.00
2022-10-02T05:50:59.427Z,9.10
2022-10-02T05:53:33.017Z,9.20
2022-10-02T05:56:03.783Z,9.30
2022-10-02T05:58:41.001Z,9.42
2022-10-02T06:01:17.221Z,9.49
2022-10-02T06:03:49.462Z,9.60
2022-10-02T06:06:19.588Z,9.68
2022-10-02T06:08:49.726Z,9.79
2022-10-02T06:11:21.366Z,9.87
2022-10-02T06:13:50.987Z,9.95
2022-10-02T06:16:21.080Z,9.99
2022-10-02T06:18:51.567Z,10.04
2022-10-02T06:21:25.720Z,10.11
2022-10-02T06:23:54.912Z,10.18
2022-10-02T06:26:27.094Z,10.27
2022-10-02T06:28:57.351Z,10.32
2022-10-02T06:31:31.153Z,10.36
2022-10-02T06:33:59.330Z,10.40
2022-10-02T06:36:40.091Z,10.46
2022-10-02T06:39:26.999Z,10.48
2022-10-02T06:42:01.576Z,10.52
2022-10-02T06:44:32.021Z,10.57
2022-10-02T06:47:10.662Z,10.61
2022-10-02T06:49:46.434Z,10.66
2022-10-02T06:52:20.390Z,10.70
2022-10-02T06:54:55.767Z,10.70
2022-10-02T06:57:34.502Z,10.77
2022-10-02T07:00:12.034Z,10.78
2022-10-02T07:03:17.149Z,10.81
2022-10-02T07:05:53.391Z,10.86
2022-10-02T07:08:26.276Z,10.88
2022-10-02T07:10:57.892Z,10.96
2022-10-02T07:13:42.975Z,11.05
2022-10-02T07:16:37.206Z,11.20
2022-10-02T07:19:30.559Z,11.36
2022-10-02T07:22:15.173Z,11.59
2022-10-02T07:24:59.831Z,11.69
2022-10-02T07:27:29.811Z,11.73
2022-10-02T07:30:00.979Z,11.78
2022-10-02T07:32:48.878Z,11.83
2022-10-02T07:35:42.016Z,11.88
2022-10-02T07:38:45.888Z,11.90
2022-10-02T07:41:41.818Z,11.96
2022-10-02T07:44:17.006Z,12.01
2022-10-02T07:46:49.826Z,12.02
2022-10-02T07:49:25.667Z,12.06
2022-10-02T07:51:56.942Z,12.10
2022-10-02T07:54:47.871Z,12.10
2022-10-02T07:57:26.158Z,12.09
2022-10-02T07:59:55.290Z,12.08
2022-10-02T08:02:28.218Z,12.07
2022-10-02T08:04:58.394Z,12.06
2022-10-02T08:07:26.497Z,11.96
2022-10-02T08:09:54.582Z,11.97
2022-10-02T08:12:28.894Z,11.91
2022-10-02T08:14:57.147Z,11.96
2022-10-02T08:17:30.438Z,12.03
2022-10-02T08:20:00.767Z,12.14
2022-10-02T08:22:31.923Z,12.23
2022-10-02T08:25:04.494Z,12.33
2022-10-02T08:27:46.954Z,12.37
2022-10-02T08:30:15.767Z,12.43
2022-10-02T08:32:47.874Z,12.50
2022-10-02T08:35:16.757Z,12.53
2022-10-02T08:38:01.407Z,12.59
2022-10-02T08:41:06.046Z,12.64
2022-10-02T08:43:51.754Z,12.67
2022-10-02T08:46:35.797Z,12.69
2022-10-02T08:49:38.346Z,12.70
2022-10-02T08:52:47.016Z,12.83
2022-10-02T08:55:52.106Z,12.90
2022-10-02T08:58:46.119Z,12.96
2022-10-02T09:01:25.546Z,13.03
2022-10-02T09:04:28.290Z,13.12
2022-10-02T09:07:17.231Z,13.20
2022-10-02T09:10:15.884Z,13.18
2022-10-02T09:13:18.669Z,13.17
2022-10-02T09:15:47.169Z,13.23
2022-10-02T09:18:19.860Z,13.33
2022-10-02T09:21:15.696Z,13.36
2022-10-02T09:24:32.398Z,13.31
2022-10-02T09:27:26.073Z,13.27
2022-10-02T09:30:28.281Z,13.27
2022-10-02T09:33:39.804Z,13.25
2022-10-02T09:36:33.940Z,13.25
2022-10-02T09:39:44.115Z,13.26
2022-10-02T09:42:48.121Z,13.35
2022-10-02T09:45:55.013Z,13.39
2022-10-02T09:49:00.675Z,13.29
2022-10-02T09:51:59.622Z,13.29
2022-10-02T09:55:08.846Z,13.29
2022-10-02T09:58:09.147Z,13.33
2022-10-02T10:00:55.257Z,13.35
2022-10-02T10:03:41.138Z,13.44
2022-10-02T10:06:54.890Z,13.50
2022-10-02T10:09:35.312Z,13.58
2022-10-02T10:12:18.709Z,13.57
2022-10-02T10:15:17.229Z,13.53
2022-10-02T10:18:18.906Z,13.50
2022-10-02T10:21:00.567Z,13.49
2022-10-02T10:23:41.878Z,13.54
2022-10-02T10:26:35.462Z,13.46
2022-10-02T10:29:45.375Z,13.53
2022-10-02T10:32:40.107Z,13.53
2022-10-02T10:35:21.906Z,13.44
2022-10-02T10:38:20.345Z,13.38
2022-10-02T10:40:59.720Z,13.20
2022-10-02T10:44:00.875Z,13.12
2022-10-02T10:46:39.401Z,13.16
2022-10-02T10:49:41.083Z,13.31
2022-10-02T10:52:15.194Z,13.40
2022-10-02T10:54:54.731Z,13.51
2022-10-02T10:57:36.921Z,13.55
2022-10-02T11:00:23.303Z,13.53
2022-10-02T11:03:27.819Z,13.49
2022-10-02T11:06:31.264Z,13.56
2022-10-02T11:09:23.806Z,13.57
2022-10-02T11:12:01.193Z,13.52
2022-10-02T11:14:34.667Z,13.44
2022-10-02T11:17:16.216Z,13.49
2022-10-02T11:20:11.808Z,13.50
2022-10-02T11:22:53.573Z,13.57
2022-10-02T11:25:47.271Z,13.55
2022-10-02T11:28:43.662Z,13.65
2022-10-02T11:31:27.994Z,13.79
2022-10-02T11:34:05.581Z,13.87
2022-10-02T11:36:47.980Z,13.89
2022-10-02T11:39:17.425Z,13.91
2022-10-02T11:42:15.348Z,13.95
2022-10-02T11:44:55.566Z,14.01
2022-10-02T11:47:59.014Z,14.16
2022-10-02T11:51:10.398Z,14.15
2022-10-02T11:53:45.170Z,14.25
2022-10-02T11:56:44.558Z,14.22
2022-10-02T11:59:33.652Z,14.25
2022-10-02T12:02:05.483Z,14.25
2022-10-02T12:04:42.104Z,14.34
2022-10-02T12:07:19.202Z,14.28
2022-10-02T12:09:54.752Z,14.22
2022-10-02T12:12:29.838Z,14.15
2022-10-02T12:15:00.684Z,14.14
2022-10-02T12:17:59.339Z,14.17
2022-10-02T12:20:53.946Z,14.15
2022-10-02T12:23:47.317Z,14.06
2022-10-02T12:26:42.106Z,14.05
2022-10-02T12:29:11.450Z,14.03
2022-10-02T12:31:51.512Z,14.03
2022-10-02T12:34:33.274Z,13.94
2022-10-02T12:37:02.669Z,13.94
2022-10-02T12:39:41.641Z,13.95
2022-10-02T12:42:26.655Z,13.93
2022-10-02T12:45:20.087Z,13.84
2022-10-02T12:48:11.360Z,13.83
2022-10-02T12:50:56.252Z,13.88
2022-10-02T12:53:52.775Z,13.84
2022-10-02T12:56:48.549Z,13.83
2022-10-02T12:59:19.552Z,13.83
2022-10-02T13:02:14.314Z,13.89
2022-10-02T13:05:26.754Z,13.87
2022-10-02T13:08:23.097Z,13.90
2022-10-02T13:10:57.715Z,13.92
2022-10-02T13:13:35.488Z,13.91
2022-10-02T13:16:06.281Z,13.97
2022-10-02T13:18:55.462Z,14.09
2022-10-02T13:21:27.743Z,14.17
2022-10-02T13:24:05.414Z,14.16
2022-10-02T13:26:36.423Z,14.10
2022-10-02T13:29:19.486Z,14.10
2022-10-02T13:31:55.715Z,14.06
2022-10-02T13:34:38.319Z,14.08
2022-10-02T13:37:15.499Z,14.07
2022-10-02T13:39:55.889Z,14.08
2022-10-02T13:42:30.546Z,13.98
2022-10-02T13:45:01.676Z,13.95
2022-10-02T13:47:41.366Z,13.94
2022-10-02T13:50:18.448Z,13.95
2022-10-02T13:52:53.872Z,13.91
2022-10-02T13:55:24.571Z,13.77
2022-10-02T13:58:15.646Z,13.77
2022-10-02T14:00:54.166Z,13.83
2022-10-02T14:03:25.916Z,13.80
2022-10-02T14:05:57.976Z,13.83
2022-10-02T14:08:50.024Z,13.94
2022-10-02T14:11:25.543Z,13.94
2022-10-02T14:14:03.334Z,13.85
2022-10-02T14:16:40.231Z,13.79
2022-10-02T14:19:23.678Z,13.77
2022-10-02T14:21:57.715Z,13.78
2022-10-02T14:24:48.707Z,13.78
2022-10-02T14:27:22.299Z,13.71
2022-10-02T14:29:50.808Z,13.67
2022-10-02T14:32:40.751Z,13.64
2022-10-02T14:35:36.133Z,13.67
2022-10-02T14:38:11.775Z,13.70
2022-10-02T14:40:45.226Z,13.77
2022-10-02T14:43:26.406Z,13.76
2022-10-02T14:46:16.602Z,13.88
2022-10-02T14:48:57.885Z,13.96
2022-10-02T14:51:33.152Z,14.00
2022-10-02T14:54:15.958Z,13.96
2022-10-02T14:56:55.938Z,13.84
2022-10-02T14:59:42.675Z,13.75
2022-10-02T15:02:23.550Z,13.66
2022-10-02T15:04:53.961Z,13.60
2022-10-02T15:07:22.127Z,13.57
2022-10-02T15:09:59.152Z,13.55
2022-10-02T15:12:29.982Z,13.51
2022-10-02T15:15:08.953Z,13.54
2022-10-02T15:18:00.377Z,13.54
2022-10-02T15:20:35.619Z,13.49
2022-10-02T15:23:04.491Z,13.44
2022-10-02T15:25:45.040Z,13.43
2022-10-02T15:28:35.398Z,13.39
2022-10-02T15:31:10.485Z,13.34
2022-10-02T15:33:39.010Z,13.30
2022-10-02T15:36:22.491Z,13.26
2022-10-02T15:39:10.900Z,13.23
2022-10-02T15:41:50.100Z,13.20
2022-10-02T15:44:54.475Z,13.16
2022-10-02T15:47:45.858Z,13.10
2022-10-02T15:50:24.847Z,13.05
2022-10-02T15:53:00.377Z,12.96
2022-10-02T15:55:31.286Z,12.89
2022-10-02T15:58:08.314Z,12.79
2022-10-02T16:00:58.978Z,12.68
2022-10-02T16:03:30.512Z,12.57
2022-10-02T16:06:00.223Z,12.48
2022-10-02T16:09:05.784Z,12.37
2022-10-02T16:12:04.942Z,12.24
2022-10-02T16:14:38.068Z,12.14
2022-10-02T16:17:29.970Z,12.01
2022-10-02T16:20:23.246Z,11.92
2022-10-02T16:23:01.458Z,11.87
2022-10-02T16:25:36.573Z,11.82
2022-10-02T16:28:10.700Z,11.78
2022-10-02T16:30:42.030Z,11.76
2022-10-02T16:33:16.866Z,11.76
2022-10-02T16:36:30.311Z,11.73
2022-10-02T16:39:05.444Z,11.68
2022-10-02T16:41:38.420Z,11.62
2022-10-02T16:44:38.736Z,11.53
2022-10-02T16:47:10.307Z,11.43
2022-10-02T16:49:44.666Z,11.33
2022-10-02T16:52:17.113Z,11.28
2022-10-02T16:54:48.557Z,11.25
2022-10-02T16:57:22.397Z,11.24
2022-10-02T16:59:52.284Z,11.23
2022-10-02T17:02:21.605Z,11.21
2022-10-02T17:04:56.611Z,11.24
2022-10-02T17:07:33.321Z,11.25
2022-10-02T17:10:03.464Z,11.26
2022-10-02T17:12:33.597Z,11.27
2022-10-02T17:15:06.509Z,11.19
2022-10-02T17:17:45.417Z,11.05
2022-10-02T17:20:17.866Z,10.87
2022-10-02T17:22:53.071Z,10.79
2022-10-02T17:25:27.118Z,10.70
2022-10-02T17:27:56.594Z,10.68
2022-10-02T17:30:27.198Z,10.66
2022-10-02T17:33:12.758Z,10.61
2022-10-02T17:35:47.754Z,10.61
2022-10-02T17:38:47.240Z,10.57
2022-10-02T17:41:42.406Z,10.53
2022-10-02T17:44:17.098Z,10.49
2022-10-02T17:46:59.015Z,10.47
2022-10-02T17:49:31.867Z,10.41
2022-10-02T17:52:24.055Z,10.35
2022-10-02T17:55:15.998Z,10.29
2022-10-02T17:57:51.171Z,10.21
2022-10-02T18:00:21.331Z,10.17
2022-10-02T18:03:27.432Z,10.09
2022-10-02T18:05:59.892Z,10.01
2022-10-02T18:09:00.645Z,9.91
2022-10-02T18:11:40.608Z,9.76
2022-10-02T18:14:14.670Z,9.67
2022-10-02T18:16:50.865Z,9.57
2022-10-02T18:19:29.062Z,9.48
2022-10-02T18:22:11.524Z,9.39
2022-10-02T18:25:03.990Z,9.32
2022-10-02T18:27:42.893Z,9.23
2022-10-02T18:30:15.532Z,9.16
2022-10-02T18:33:05.005Z,9.13
2022-10-02T18:35:37.478Z,9.08
2022-10-02T18:38:13.821Z,9.03
2022-10-02T18:41:05.841Z,8.96
2022-10-02T18:43:55.459Z,8.91
2022-10-02T18:46:31.246Z,8.85
2022-10-02T18:49:09.226Z,8.78
2022-10-02T18:52:09.439Z,8.69
2022-10-02T18:54:43.221Z,8.64
2022-10-02T18:57:22.308Z,8.60
2022-10-02T18:59:56.239Z,8.51
2022-10-02T19:02:31.186Z,8.48
2022-10-02T19:05:10.366Z,8.43
2022-10-02T19:07:40.366Z,8.40
2022-10-02T19:10:27.193Z,8.41
2022-10-02T19:12:56.644Z,8.42
2022-10-02T19:15:28.295Z,8.43
2022-10-02T19:18:01.142Z,8.47
2022-10-02T19:20:44.704Z,8.49
2022-10-02T19:23:18.733Z,8.55
2022-10-02T19:25:47.631Z,8.54
2022-10-02T19:28:18.897Z,8.55
2022-10-02T19:30:50.005Z,8.54
2022-10-02T19:33:21.819Z,8.55
2022-10-02T19:35:50.051Z,8.58
2022-10-02T19:38:25.051Z,8.63
2022-10-02T19:40:54.035Z,8.62
2022-10-02T19:43:24.665Z,8.64
2022-10-02T19:45:56.983Z,8.69
2022-10-02T19:48:26.315Z,8.75
2022-10-02T19:50:58.309Z,8.85
2022-10-02T19:53:27.033Z,8.98
2022-10-02T19:55:56.899Z,9.11
2022-10-02T19:58:28.352Z,9.20
2022-10-02T20:00:58.024Z,9.25
2022-10-02T20:03:26.312Z,9.30
2022-10-02T20:05:55.321Z,9.33
2022-10-02T20:08:24.172Z,9.34
2022-10-02T20:10:58.493Z,9.37
2022-10-02T20:13:28.396Z,9.37
2022-10-02T20:16:17.100Z,9.38
2022-10-02T20:18:50.473Z,9.39
2022-10-02T20:21:20.096Z,9.41
2022-10-02T20:23:50.635Z,9.44
2022-10-02T20:26:20.379Z,9.47
2022-10-02T20:28:52.031Z,9.49
2022-10-02T20:31:23.479Z,9.51
2022-10-02T20:33:52.736Z,9.52
2022-10-02T20:36:21.886Z,9.53
2022-10-02T20:38:52.186Z,9.55
2022-10-02T20:41:22.498Z,9.56
2022-10-02T20:43:52.127Z,9.58
2022-10-02T20:46:46.190Z,9.59
2022-10-02T20:49:30.777Z,9.61
2022-10-02T20:52:13.953Z,9.64
2022-10-02T20:54:49.054Z,9.67
2022-10-02T20:58:00.309Z,9.66
2022-10-02T21:00:29.561Z,9.68
2022-10-02T21:03:19.234Z,9.68
2022-10-02T21:05:55.236Z,9.69
2022-10-02T21:08:40.792Z,9.70
2022-10-02T21:11:17.665Z,9.72
2022-10-02T21:14:25.370Z,9.72
2022-10-02T21:17:04.076Z,9.71
2022-10-02T21:20:00.347Z,9.72
2022-10-02T21:22:50.345Z,9.71
2022-10-02T21:25:44.412Z,9.71
2022-10-02T21:28:47.909Z,9.69
2022-10-02T21:31:32.493Z,9.68
2022-10-02T21:34:08.860Z,9.66
2022-10-02T21:36:42.811Z,9.67
2022-10-02T21:39:36.370Z,9.64
2022-10-02T21:42:39.712Z,9.61
2022-10-02T21:45:55.411Z,9.62
2022-10-02T21:48:50.769Z,9.60
2022-10-02T21:51:31.334Z,9.62
2022-10-02T21:54:30.354Z,9.62
2022-10-02T21:57:18.971Z,9.63
2022-10-02T22:00:08.401Z,9.65
2022-10-02T22:03:12.987Z,9.68
2022-10-02T22:06:05.326Z,9.68
2022-10-02T22:08:38.933Z,9.68
2022-10-02T22:11:12.374Z,9.67
2022-10-02T22:13:43.305Z,9.68
2022-10-02T22:16:18.826Z,9.69
2022-10-02T22:18:50.166Z,9.64
2022-10-02T22:21:41.176Z,9.65
2022-10-02T22:24:17.316Z,9.60
2022-10-02T22:27:19.296Z,9.59
2022-10-02T22:29:48.235Z,9.57
2022-10-02T22:32:53.538Z,9.57
2022-10-02T22:35:25.914Z,9.48
2022-10-02T22:38:04.358Z,9.42
2022-10-02T22:40:33.418Z,9.34
2022-10-02T22:43:05.169Z,9.29
2022-10-02T22:45:35.419Z,9.23
2022-10-02T22:48:05.622Z,9.18
2022-10-02T22:50:35.979Z,9.10
2022-10-02T22:53:08.891Z,9.02
2022-10-02T22:55:38.118Z,9.01
2022-10-02T22:58:13.924Z,9.00
2022-10-02T23:00:52.995Z,9.01
2022-10-02T23:03:24.774Z,9.03
2022-10-02T23:05:54.063Z,9.04
2022-10-02T23:08:26.245Z,9.08
2022-10-02T23:10:55.379Z,9.13
2022-10-02T23:13:26.472Z,9.12
2022-10-02T23:15:57.704Z,9.15
2022-10-02T23:18:34.639Z,9.15
2022-10-02T23:21:06.870Z,9.12
2022-10-02T23:23:36.333Z,9.12
2022-10-02T23:26:07.831Z,9.14
2022-10-02T23:28:39.199Z,9.18
2022-10-02T23:31:13.033Z,9.20
2022-10-02T23:33:45.718Z,9.17
2022-10-02T23:36:20.587Z,9.16
2022-10-02T23:38:51.660Z,9.18
2022-10-02T23:41:39.207Z,9.19
2022-10-02T23:44:17.413Z,9.19
2022-10-02T23:46:57.854Z,9.19
2022-10-02T23:49:27.879Z,9.20
2022-10-02T23:51:59.122Z,9.23
2022-10-02T23:54:42.663Z,9.27
2022-10-02T23:57:43.896Z,9.32
